Stuntz, Minnesota
Current Conditions -  °F | °C
As of 1:53 AM on Monday 24 Nov 2014 (Local Time) from KHIB Reporting Station
Overcast Overcast  
Wind Chill: 25°   Ceiling: 700
Heat Index: 34°   Visibility: 10mi
Dew Point: 30°   Wind: 14mph
Humidity: 85%   Direction: 330°NNW
Pressure: 29.28"   Gusts: NA
Location:  47.4158°N, 93.0053°W
Report Text: KHIB 240753Z AUTO 33012KT 10SM OVC007 01/M01 A2928 RMK AO2 SLP929 T00111011
Loading
Personal Weather Stations






























Interactive Weather Map New forecast layout! Learn more

10-Day Weather Forecast

Advertisements
Track Severe Weather on mobile